Pagrindinis puslapis
METAR-TAF:

METAR-TAF

Oro uostai :

Point Hope, Aliaska, Jungtinės Amerikos Valstijos

platuma: 68-21N, ilguma: 166-48W, Aukštis: 4 m

Dabartinis oras

Ataskaita buvo paskelbta 48 minutes, ne 17:56 UTC
Vėjas 6 kt iš Šiaurės
Temperatūra -26°C
Drėgmė 83%
Slėgis 1016 hPa
Matomumas: 16.1 km
Giedras dangus

METAR: PAPO 161756Z AUTO 36006KT 10SM CLR M26/M28 A3000 RMK AO2 SLP158 T12611283 11256 21272 55000 FZRANO

Laikas: 09:44 (18:44 UTC)


TAF: trūkstamas

Orai ataskaitas ir orų prognozės (METAR, TAF).

turimą stotys yra geltonos ir raudonos taškus žemėlapyje.

Perkelti pele per norėdami pamatyti stoties vardą.

Tada spustelėkite, norėdami matyti oro stebėjimo ir prognozės.

Norėdami pakeisti žemėlapį: spustelėkite ant žalios mygtukų su juodo kryžiaus žemyn,; žalią mygtuką su brūkšneliu, jei norite nutolinti; arba žalių rodyklių gretimoms žemėlapius.


METAR-TAF: